sensor_id;sensor_type;location;lat;lon;timestamp;temperature;humidity
563;DHT22;266;49.514;8.294;2024-01-30T00:00:57;0.80;99.90
563;DHT22;266;49.514;8.294;2024-01-30T00:03:25;0.80;99.90
563;DHT22;266;49.514;8.294;2024-01-30T00:05:53;0.70;99.90
563;DHT22;266;49.514;8.294;2024-01-30T00:08:26;0.70;99.90
563;DHT22;266;49.514;8.294;2024-01-30T00:10:54;0.80;99.90
563;DHT22;266;49.514;8.294;2024-01-30T00:13:22;0.80;99.90
563;DHT22;266;49.514;8.294;2024-01-30T00:15:52;0.70;99.90
563;DHT22;266;49.514;8.294;2024-01-30T00:18:20;0.80;99.90
563;DHT22;266;49.514;8.294;2024-01-30T00:20:48;0.80;99.90
563;DHT22;266;49.514;8.294;2024-01-30T00:23:16;0.80;99.90
563;DHT22;266;49.514;8.294;2024-01-30T00:25:45;0.80;99.90
563;DHT22;266;49.514;8.294;2024-01-30T00:28:13;0.90;99.90
563;DHT22;266;49.514;8.294;2024-01-30T00:30:41;0.90;99.90
563;DHT22;266;49.514;8.294;2024-01-30T00:33:10;1.00;99.90
563;DHT22;266;49.514;8.294;2024-01-30T00:35:38;0.90;99.90
563;DHT22;266;49.514;8.294;2024-01-30T00:38:06;0.90;99.90
563;DHT22;266;49.514;8.294;2024-01-30T00:40:34;0.80;99.90
563;DHT22;266;49.514;8.294;2024-01-30T00:43:04;0.70;99.90
563;DHT22;266;49.514;8.294;2024-01-30T00:45:32;0.70;99.90
563;DHT22;266;49.514;8.294;2024-01-30T00:48:00;0.70;99.90
563;DHT22;266;49.514;8.294;2024-01-30T00:50:28;0.60;99.90
563;DHT22;266;49.514;8.294;2024-01-30T00:52:56;0.70;99.90
563;DHT22;266;49.514;8.294;2024-01-30T00:55:24;0.70;99.90
563;DHT22;266;49.514;8.294;2024-01-30T00:57:52;0.70;99.90
563;DHT22;266;49.514;8.294;2024-01-30T01:00:22;0.70;99.90
563;DHT22;266;49.514;8.294;2024-01-30T01:02:55;0.70;99.90
563;DHT22;266;49.514;8.294;2024-01-30T01:05:24;0.70;99.90
563;DHT22;266;49.514;8.294;2024-01-30T01:07:51;0.60;99.90
563;DHT22;266;49.514;8.294;2024-01-30T01:10:19;0.60;99.90
563;DHT22;266;49.514;8.294;2024-01-30T01:12:48;0.60;99.90
563;DHT22;266;49.514;8.294;2024-01-30T01:15:16;0.60;99.90
563;DHT22;266;49.514;8.294;2024-01-30T01:17:46;0.70;99.90
563;DHT22;266;49.514;8.294;2024-01-30T01:20:14;0.70;99.90
563;DHT22;266;49.514;8.294;2024-01-30T01:22:42;0.70;99.90
563;DHT22;266;49.514;8.294;2024-01-30T01:25:10;0.80;99.90
563;DHT22;266;49.514;8.294;2024-01-30T01:27:38;0.90;99.90
563;DHT22;266;49.514;8.294;2024-01-30T01:30:09;1.00;99.90
563;DHT22;266;49.514;8.294;2024-01-30T01:32:38;0.90;99.90
563;DHT22;266;49.514;8.294;2024-01-30T01:35:13;0.90;99.90
563;DHT22;266;49.514;8.294;2024-01-30T01:37:41;0.90;99.90
563;DHT22;266;49.514;8.294;2024-01-30T01:40:09;0.80;99.90
563;DHT22;266;49.514;8.294;2024-01-30T01:42:38;0.80;99.90
563;DHT22;266;49.514;8.294;2024-01-30T01:45:06;0.80;99.90
563;DHT22;266;49.514;8.294;2024-01-30T01:47:34;0.80;99.90
563;DHT22;266;49.514;8.294;2024-01-30T01:50:03;0.80;99.90
563;DHT22;266;49.514;8.294;2024-01-30T01:52:32;0.70;99.90
563;DHT22;266;49.514;8.294;2024-01-30T01:55:00;0.70;99.90
563;DHT22;266;49.514;8.294;2024-01-30T01:57:28;0.70;99.90
563;DHT22;266;49.514;8.294;2024-01-30T01:59:56;0.60;99.90
563;DHT22;266;49.514;8.294;2024-01-30T02:02:26;0.60;99.90
563;DHT22;266;49.514;8.294;2024-01-30T02:04:54;0.50;99.90
563;DHT22;266;49.514;8.294;2024-01-30T02:07:22;0.60;99.90
563;DHT22;266;49.514;8.294;2024-01-30T02:09:52;0.60;99.90
563;DHT22;266;49.514;8.294;2024-01-30T02:12:20;0.60;99.90
563;DHT22;266;49.514;8.294;2024-01-30T02:14:49;0.60;99.90
563;DHT22;266;49.514;8.294;2024-01-30T02:17:16;0.70;99.90
563;DHT22;266;49.514;8.294;2024-01-30T02:19:44;0.70;99.90
563;DHT22;266;49.514;8.294;2024-01-30T02:22:15;0.70;99.90
563;DHT22;266;49.514;8.294;2024-01-30T02:24:43;0.80;99.90
563;DHT22;266;49.514;8.294;2024-01-30T02:27:11;0.80;99.90
563;DHT22;266;49.514;8.294;2024-01-30T02:29:39;0.80;99.90
563;DHT22;266;49.514;8.294;2024-01-30T02:32:07;0.70;99.90
563;DHT22;266;49.514;8.294;2024-01-30T02:34:34;0.60;99.90
563;DHT22;266;49.514;8.294;2024-01-30T02:37:03;0.70;99.90
563;DHT22;266;49.514;8.294;2024-01-30T02:39:32;0.60;99.90
563;DHT22;266;49.514;8.294;2024-01-30T02:42:00;0.60;99.90
563;DHT22;266;49.514;8.294;2024-01-30T02:44:28;0.50;99.90
563;DHT22;266;49.514;8.294;2024-01-30T02:46:56;0.50;99.90
563;DHT22;266;49.514;8.294;2024-01-30T02:49:24;0.40;99.90
563;DHT22;266;49.514;8.294;2024-01-30T02:51:54;0.40;99.90
563;DHT22;266;49.514;8.294;2024-01-30T02:54:23;0.30;99.90
563;DHT22;266;49.514;8.294;2024-01-30T02:56:52;0.30;99.90
563;DHT22;266;49.514;8.294;2024-01-30T02:59:20;0.30;99.90
563;DHT22;266;49.514;8.294;2024-01-30T03:01:48;0.20;99.90
563;DHT22;266;49.514;8.294;2024-01-30T03:04:16;0.20;99.90
563;DHT22;266;49.514;8.294;2024-01-30T03:06:47;0.20;99.90
563;DHT22;266;49.514;8.294;2024-01-30T03:09:16;0.20;99.90
563;DHT22;266;49.514;8.294;2024-01-30T03:11:44;0.20;99.90
563;DHT22;266;49.514;8.294;2024-01-30T03:14:14;0.20;99.90
563;DHT22;266;49.514;8.294;2024-01-30T03:16:42;0.20;99.90
563;DHT22;266;49.514;8.294;2024-01-30T03:19:10;0.20;99.90
563;DHT22;266;49.514;8.294;2024-01-30T03:21:38;0.20;99.90
563;DHT22;266;49.514;8.294;2024-01-30T03:24:06;0.10;99.90
563;DHT22;266;49.514;8.294;2024-01-30T03:26:34;0.20;99.90
563;DHT22;266;49.514;8.294;2024-01-30T03:29:02;0.20;99.90
563;DHT22;266;49.514;8.294;2024-01-30T03:31:32;0.10;99.90
563;DHT22;266;49.514;8.294;2024-01-30T03:34:00;0.10;99.90
563;DHT22;266;49.514;8.294;2024-01-30T03:36:28;0.00;99.90
563;DHT22;266;49.514;8.294;2024-01-30T03:38:59;0.00;99.90
563;DHT22;266;49.514;8.294;2024-01-30T03:41:27;0.00;99.90
563;DHT22;266;49.514;8.294;2024-01-30T03:43:55;0.00;99.90
563;DHT22;266;49.514;8.294;2024-01-30T03:46:23;-0.10;99.90
563;DHT22;266;49.514;8.294;2024-01-30T03:48:52;-0.10;99.90
563;DHT22;266;49.514;8.294;2024-01-30T03:51:20;-0.10;99.90
563;DHT22;266;49.514;8.294;2024-01-30T03:53:48;-0.10;99.90
563;DHT22;266;49.514;8.294;2024-01-30T03:56:16;-0.10;99.90
563;DHT22;266;49.514;8.294;2024-01-30T03:58:44;-0.10;99.90
563;DHT22;266;49.514;8.294;2024-01-30T04:01:13;-0.10;99.90
563;DHT22;266;49.514;8.294;2024-01-30T04:03:41;-0.10;99.90
563;DHT22;266;49.514;8.294;2024-01-30T04:06:12;-0.10;99.90
563;DHT22;266;49.514;8.294;2024-01-30T04:08:40;-0.10;99.90
563;DHT22;266;49.514;8.294;2024-01-30T04:11:08;-0.20;99.90
563;DHT22;266;49.514;8.294;2024-01-30T04:13:36;-0.20;99.90
563;DHT22;266;49.514;8.294;2024-01-30T04:16:05;-0.20;99.90
563;DHT22;266;49.514;8.294;2024-01-30T04:18:33;-0.20;99.90
563;DHT22;266;49.514;8.294;2024-01-30T04:21:01;-0.20;99.90
563;DHT22;266;49.514;8.294;2024-01-30T04:23:30;-0.20;99.90
563;DHT22;266;49.514;8.294;2024-01-30T04:25:58;-0.20;99.90
563;DHT22;266;49.514;8.294;2024-01-30T04:28:26;-0.20;99.90
563;DHT22;266;49.514;8.294;2024-01-30T04:30:54;-0.20;99.90
563;DHT22;266;49.514;8.294;2024-01-30T04:33:22;-0.20;99.90
563;DHT22;266;49.514;8.294;2024-01-30T04:35:50;-0.30;99.90
563;DHT22;266;49.514;8.294;2024-01-30T04:38:18;-0.30;99.90
563;DHT22;266;49.514;8.294;2024-01-30T04:40:48;-0.30;99.90
563;DHT22;266;49.514;8.294;2024-01-30T04:43:16;-0.30;99.90
563;DHT22;266;49.514;8.294;2024-01-30T04:45:45;-0.30;99.90
563;DHT22;266;49.514;8.294;2024-01-30T04:48:13;-0.30;99.90
563;DHT22;266;49.514;8.294;2024-01-30T04:50:41;-0.30;99.90
563;DHT22;266;49.514;8.294;2024-01-30T04:53:09;-0.30;99.90
563;DHT22;266;49.514;8.294;2024-01-30T04:55:37;-0.30;99.90
563;DHT22;266;49.514;8.294;2024-01-30T04:58:07;-0.30;99.90
563;DHT22;266;49.514;8.294;2024-01-30T05:00:35;-0.30;99.90
563;DHT22;266;49.514;8.294;2024-01-30T05:03:03;-0.30;99.90
563;DHT22;266;49.514;8.294;2024-01-30T05:05:31;-0.30;99.90
563;DHT22;266;49.514;8.294;2024-01-30T05:07:59;-0.30;99.90
563;DHT22;266;49.514;8.294;2024-01-30T05:10:29;-0.30;99.90
563;DHT22;266;49.514;8.294;2024-01-30T05:12:57;-0.30;99.90
563;DHT22;266;49.514;8.294;2024-01-30T05:15:26;-0.30;99.90
563;DHT22;266;49.514;8.294;2024-01-30T05:17:54;-0.30;99.90
563;DHT22;266;49.514;8.294;2024-01-30T05:20:22;-0.20;99.90
563;DHT22;266;49.514;8.294;2024-01-30T05:22:50;-0.20;99.90
563;DHT22;266;49.514;8.294;2024-01-30T05:25:19;-0.30;99.90
563;DHT22;266;49.514;8.294;2024-01-30T05:27:47;-0.30;99.90
563;DHT22;266;49.514;8.294;2024-01-30T05:30:15;-0.40;99.90
563;DHT22;266;49.514;8.294;2024-01-30T05:32:45;-0.40;99.90
563;DHT22;266;49.514;8.294;2024-01-30T05:35:13;-0.40;99.90
563;DHT22;266;49.514;8.294;2024-01-30T05:37:41;-0.40;99.90
563;DHT22;266;49.514;8.294;2024-01-30T05:40:10;-0.40;99.90
563;DHT22;266;49.514;8.294;2024-01-30T05:42:44;-0.40;99.90
563;DHT22;266;49.514;8.294;2024-01-30T05:45:12;-0.40;99.90
563;DHT22;266;49.514;8.294;2024-01-30T05:47:40;-0.40;99.90
563;DHT22;266;49.514;8.294;2024-01-30T05:50:10;-0.40;99.90
563;DHT22;266;49.514;8.294;2024-01-30T05:52:38;-0.40;99.90
563;DHT22;266;49.514;8.294;2024-01-30T05:55:06;-0.50;99.90
563;DHT22;266;49.514;8.294;2024-01-30T05:57:35;-0.50;99.90
563;DHT22;266;49.514;8.294;2024-01-30T06:00:05;-0.40;99.90
563;DHT22;266;49.514;8.294;2024-01-30T06:02:34;-0.30;99.90
563;DHT22;266;49.514;8.294;2024-01-30T06:05:02;-0.20;99.90
563;DHT22;266;49.514;8.294;2024-01-30T06:07:31;-0.20;99.90
563;DHT22;266;49.514;8.294;2024-01-30T06:10:03;-0.20;99.90
563;DHT22;266;49.514;8.294;2024-01-30T06:12:32;-0.20;99.90
563;DHT22;266;49.514;8.294;2024-01-30T06:15:00;-0.30;99.90
563;DHT22;266;49.514;8.294;2024-01-30T06:17:28;-0.30;99.90
563;DHT22;266;49.514;8.294;2024-01-30T06:19:56;-0.20;99.90
563;DHT22;266;49.514;8.294;2024-01-30T06:22:24;-0.20;99.90
563;DHT22;266;49.514;8.294;2024-01-30T06:24:54;-0.10;99.90
563;DHT22;266;49.514;8.294;2024-01-30T06:27:22;0.00;99.90
563;DHT22;266;49.514;8.294;2024-01-30T06:29:50;0.00;99.90
563;DHT22;266;49.514;8.294;2024-01-30T06:32:18;0.00;99.90
563;DHT22;266;49.514;8.294;2024-01-30T06:34:46;-0.10;99.90
563;DHT22;266;49.514;8.294;2024-01-30T06:37:14;-0.10;99.90
563;DHT22;266;49.514;8.294;2024-01-30T06:39:42;-0.10;99.90
563;DHT22;266;49.514;8.294;2024-01-30T06:42:12;-0.10;99.90
563;DHT22;266;49.514;8.294;2024-01-30T06:44:40;-0.10;99.90
563;DHT22;266;49.514;8.294;2024-01-30T06:47:08;-0.10;99.90
563;DHT22;266;49.514;8.294;2024-01-30T06:49:36;-0.10;99.90
563;DHT22;266;49.514;8.294;2024-01-30T06:52:06;-0.10;99.90
563;DHT22;266;49.514;8.294;2024-01-30T06:54:34;-0.20;99.90
563;DHT22;266;49.514;8.294;2024-01-30T06:57:02;-0.20;99.90
563;DHT22;266;49.514;8.294;2024-01-30T06:59:31;-0.20;99.90
563;DHT22;266;49.514;8.294;2024-01-30T07:01:59;-0.20;99.90
563;DHT22;266;49.514;8.294;2024-01-30T07:04:28;-0.20;99.90
563;DHT22;266;49.514;8.294;2024-01-30T07:06:58;-0.20;99.90
563;DHT22;266;49.514;8.294;2024-01-30T07:09:26;-0.20;99.90
563;DHT22;266;49.514;8.294;2024-01-30T07:11:54;-0.20;99.90
563;DHT22;266;49.514;8.294;2024-01-30T07:14:22;-0.20;99.90
563;DHT22;266;49.514;8.294;2024-01-30T07:16:52;-0.20;99.90
563;DHT22;266;49.514;8.294;2024-01-30T07:19:20;-0.30;99.90
563;DHT22;266;49.514;8.294;2024-01-30T07:21:48;-0.30;99.90
563;DHT22;266;49.514;8.294;2024-01-30T07:24:16;-0.20;99.90
563;DHT22;266;49.514;8.294;2024-01-30T07:26:44;-0.20;99.90
563;DHT22;266;49.514;8.294;2024-01-30T07:29:12;-0.20;99.90
563;DHT22;266;49.514;8.294;2024-01-30T07:31:41;-0.10;99.90
563;DHT22;266;49.514;8.294;2024-01-30T07:34:11;-0.10;99.90
563;DHT22;266;49.514;8.294;2024-01-30T07:36:39;0.00;99.90
563;DHT22;266;49.514;8.294;2024-01-30T07:39:07;0.10;99.90
563;DHT22;266;49.514;8.294;2024-01-30T07:41:36;0.20;99.90
563;DHT22;266;49.514;8.294;2024-01-30T07:44:04;0.20;99.90
563;DHT22;266;49.514;8.294;2024-01-30T07:46:32;0.30;99.90
563;DHT22;266;49.514;8.294;2024-01-30T07:49:00;0.40;99.90
563;DHT22;266;49.514;8.294;2024-01-30T07:51:29;0.50;99.90
563;DHT22;266;49.514;8.294;2024-01-30T07:53:59;0.70;99.90
563;DHT22;266;49.514;8.294;2024-01-30T07:56:27;0.80;99.90
563;DHT22;266;49.514;8.294;2024-01-30T07:58:55;0.90;99.90
563;DHT22;266;49.514;8.294;2024-01-30T08:01:23;1.20;99.90
563;DHT22;266;49.514;8.294;2024-01-30T08:03:51;1.40;99.90
563;DHT22;266;49.514;8.294;2024-01-30T08:06:19;1.60;99.90
563;DHT22;266;49.514;8.294;2024-01-30T08:08:48;1.90;99.90
563;DHT22;266;49.514;8.294;2024-01-30T08:11:20;2.20;99.90
563;DHT22;266;49.514;8.294;2024-01-30T08:13:52;2.80;99.90
563;DHT22;266;49.514;8.294;2024-01-30T08:16:20;3.00;99.90
563;DHT22;266;49.514;8.294;2024-01-30T08:18:48;3.20;99.90
563;DHT22;266;49.514;8.294;2024-01-30T08:21:16;3.30;99.90
563;DHT22;266;49.514;8.294;2024-01-30T08:23:44;3.30;99.90
563;DHT22;266;49.514;8.294;2024-01-30T08:26:13;3.30;99.90
563;DHT22;266;49.514;8.294;2024-01-30T08:28:41;3.20;99.90
563;DHT22;266;49.514;8.294;2024-01-30T08:31:10;3.20;99.90
563;DHT22;266;49.514;8.294;2024-01-30T08:33:39;3.20;99.90
563;DHT22;266;49.514;8.294;2024-01-30T08:36:09;3.20;99.90
563;DHT22;266;49.514;8.294;2024-01-30T08:38:37;3.20;99.90
563;DHT22;266;49.514;8.294;2024-01-30T08:41:05;3.20;99.90
563;DHT22;266;49.514;8.294;2024-01-30T08:43:36;3.20;99.90
563;DHT22;266;49.514;8.294;2024-01-30T08:46:04;3.30;99.90
563;DHT22;266;49.514;8.294;2024-01-30T08:48:32;3.30;99.90
563;DHT22;266;49.514;8.294;2024-01-30T08:51:00;3.30;99.90
563;DHT22;266;49.514;8.294;2024-01-30T08:53:28;3.30;99.90
563;DHT22;266;49.514;8.294;2024-01-30T08:55:56;3.40;99.90
563;DHT22;266;49.514;8.294;2024-01-30T08:58:26;3.30;99.90
563;DHT22;266;49.514;8.294;2024-01-30T09:00:55;3.40;99.90
563;DHT22;266;49.514;8.294;2024-01-30T09:03:23;3.40;99.90
563;DHT22;266;49.514;8.294;2024-01-30T09:05:51;3.30;99.90
563;DHT22;266;49.514;8.294;2024-01-30T09:08:20;3.30;99.90
563;DHT22;266;49.514;8.294;2024-01-30T09:10:48;3.40;99.90
563;DHT22;266;49.514;8.294;2024-01-30T09:13:16;3.30;99.90
563;DHT22;266;49.514;8.294;2024-01-30T09:15:44;3.40;99.90
563;DHT22;266;49.514;8.294;2024-01-30T09:18:14;3.40;99.90
563;DHT22;266;49.514;8.294;2024-01-30T09:20:42;3.60;99.90
563;DHT22;266;49.514;8.294;2024-01-30T09:23:10;3.60;99.90
563;DHT22;266;49.514;8.294;2024-01-30T09:25:38;3.70;99.90
563;DHT22;266;49.514;8.294;2024-01-30T09:28:06;3.80;99.90
563;DHT22;266;49.514;8.294;2024-01-30T09:30:34;3.80;99.90
563;DHT22;266;49.514;8.294;2024-01-30T09:33:02;4.00;99.90
563;DHT22;266;49.514;8.294;2024-01-30T09:35:32;4.00;99.90
563;DHT22;266;49.514;8.294;2024-01-30T09:38:01;4.10;99.90
563;DHT22;266;49.514;8.294;2024-01-30T09:40:29;4.20;99.90
563;DHT22;266;49.514;8.294;2024-01-30T09:42:58;4.40;99.90
563;DHT22;266;49.514;8.294;2024-01-30T09:45:27;4.60;99.90
563;DHT22;266;49.514;8.294;2024-01-30T09:47:56;4.80;99.90
563;DHT22;266;49.514;8.294;2024-01-30T09:50:27;4.80;99.90
563;DHT22;266;49.514;8.294;2024-01-30T09:52:58;4.90;99.90
563;DHT22;266;49.514;8.294;2024-01-30T09:55:27;5.00;99.90
563;DHT22;266;49.514;8.294;2024-01-30T09:57:55;5.00;99.90
563;DHT22;266;49.514;8.294;2024-01-30T10:00:23;5.00;99.90
563;DHT22;266;49.514;8.294;2024-01-30T10:02:54;5.00;99.90
563;DHT22;266;49.514;8.294;2024-01-30T10:05:27;5.00;99.90
563;DHT22;266;49.514;8.294;2024-01-30T10:07:57;5.00;99.90
563;DHT22;266;49.514;8.294;2024-01-30T10:10:26;5.10;99.90
563;DHT22;266;49.514;8.294;2024-01-30T10:12:54;5.20;99.90
563;DHT22;266;49.514;8.294;2024-01-30T10:15:23;5.30;99.90
563;DHT22;266;49.514;8.294;2024-01-30T10:17:52;5.30;99.90
563;DHT22;266;49.514;8.294;2024-01-30T10:20:20;5.30;99.90
563;DHT22;266;49.514;8.294;2024-01-30T10:22:49;5.40;99.90
563;DHT22;266;49.514;8.294;2024-01-30T10:25:18;5.40;99.90
563;DHT22;266;49.514;8.294;2024-01-30T10:27:52;5.50;99.90
563;DHT22;266;49.514;8.294;2024-01-30T10:30:22;5.70;99.90
563;DHT22;266;49.514;8.294;2024-01-30T10:32:51;5.90;99.90
563;DHT22;266;49.514;8.294;2024-01-30T10:35:19;5.90;99.90
563;DHT22;266;49.514;8.294;2024-01-30T10:37:48;6.00;99.90
563;DHT22;266;49.514;8.294;2024-01-30T10:40:20;6.10;99.90
563;DHT22;266;49.514;8.294;2024-01-30T10:42:50;6.10;99.90
563;DHT22;266;49.514;8.294;2024-01-30T10:45:22;6.20;99.90
563;DHT22;266;49.514;8.294;2024-01-30T10:47:53;6.20;99.90
563;DHT22;266;49.514;8.294;2024-01-30T10:50:24;6.20;99.90
563;DHT22;266;49.514;8.294;2024-01-30T10:52:54;6.40;99.90
563;DHT22;266;49.514;8.294;2024-01-30T10:55:24;6.50;99.90
563;DHT22;266;49.514;8.294;2024-01-30T10:57:55;6.60;99.90
563;DHT22;266;49.514;8.294;2024-01-30T11:00:23;6.70;99.90
563;DHT22;266;49.514;8.294;2024-01-30T11:02:53;6.70;99.90
563;DHT22;266;49.514;8.294;2024-01-30T11:05:25;6.90;99.90
563;DHT22;266;49.514;8.294;2024-01-30T11:08:10;7.00;99.90
563;DHT22;266;49.514;8.294;2024-01-30T11:10:46;7.20;99.90
563;DHT22;266;49.514;8.294;2024-01-30T11:13:15;7.30;99.90
563;DHT22;266;49.514;8.294;2024-01-30T11:15:43;7.50;99.90
563;DHT22;266;49.514;8.294;2024-01-30T11:18:11;7.50;99.90
563;DHT22;266;49.514;8.294;2024-01-30T11:20:46;7.50;99.90
563;DHT22;266;49.514;8.294;2024-01-30T11:23:15;7.50;99.90
563;DHT22;266;49.514;8.294;2024-01-30T11:25:43;7.50;99.90
563;DHT22;266;49.514;8.294;2024-01-30T11:28:15;7.50;99.90
563;DHT22;266;49.514;8.294;2024-01-30T11:30:43;7.60;99.90
563;DHT22;266;49.514;8.294;2024-01-30T11:33:14;7.60;99.90
563;DHT22;266;49.514;8.294;2024-01-30T11:35:43;7.60;99.90
563;DHT22;266;49.514;8.294;2024-01-30T11:38:15;7.60;99.90
563;DHT22;266;49.514;8.294;2024-01-30T11:40:43;7.50;99.90
563;DHT22;266;49.514;8.294;2024-01-30T11:43:11;7.60;99.90
563;DHT22;266;49.514;8.294;2024-01-30T11:45:41;7.60;99.90
563;DHT22;266;49.514;8.294;2024-01-30T11:48:11;7.60;99.90
563;DHT22;266;49.514;8.294;2024-01-30T11:50:40;7.70;99.90
563;DHT22;266;49.514;8.294;2024-01-30T11:53:09;7.80;99.90
563;DHT22;266;49.514;8.294;2024-01-30T11:55:40;7.90;99.90
563;DHT22;266;49.514;8.294;2024-01-30T11:58:08;8.00;99.90
563;DHT22;266;49.514;8.294;2024-01-30T12:00:38;8.10;99.90
563;DHT22;266;49.514;8.294;2024-01-30T12:03:11;8.10;99.90
563;DHT22;266;49.514;8.294;2024-01-30T12:05:39;8.20;99.90
563;DHT22;266;49.514;8.294;2024-01-30T12:08:15;8.30;99.90
563;DHT22;266;49.514;8.294;2024-01-30T12:10:43;8.50;99.90
563;DHT22;266;49.514;8.294;2024-01-30T12:13:11;8.60;99.90
563;DHT22;266;49.514;8.294;2024-01-30T12:15:40;8.60;99.90
563;DHT22;266;49.514;8.294;2024-01-30T12:18:12;8.80;99.90
563;DHT22;266;49.514;8.294;2024-01-30T12:20:40;8.80;99.90
563;DHT22;266;49.514;8.294;2024-01-30T12:23:12;8.90;99.90
563;DHT22;266;49.514;8.294;2024-01-30T12:25:41;9.00;99.90
563;DHT22;266;49.514;8.294;2024-01-30T12:28:10;9.10;99.90
563;DHT22;266;49.514;8.294;2024-01-30T12:30:38;9.20;99.90
563;DHT22;266;49.514;8.294;2024-01-30T12:33:09;9.30;99.90
563;DHT22;266;49.514;8.294;2024-01-30T12:35:39;9.40;99.90
563;DHT22;266;49.514;8.294;2024-01-30T12:38:21;9.60;99.90
563;DHT22;266;49.514;8.294;2024-01-30T12:40:54;9.70;99.90
563;DHT22;266;49.514;8.294;2024-01-30T12:43:22;9.70;99.90
563;DHT22;266;49.514;8.294;2024-01-30T12:46:03;9.80;99.90
563;DHT22;266;49.514;8.294;2024-01-30T12:48:32;9.90;99.90
563;DHT22;266;49.514;8.294;2024-01-30T12:51:02;10.00;99.90
563;DHT22;266;49.514;8.294;2024-01-30T12:53:31;10.00;99.90
563;DHT22;266;49.514;8.294;2024-01-30T12:56:03;10.10;99.90
563;DHT22;266;49.514;8.294;2024-01-30T12:58:31;10.20;99.90
563;DHT22;266;49.514;8.294;2024-01-30T13:01:01;10.30;99.90
563;DHT22;266;49.514;8.294;2024-01-30T13:03:29;10.40;99.90
563;DHT22;266;49.514;8.294;2024-01-30T13:05:59;10.50;99.90
563;DHT22;266;49.514;8.294;2024-01-30T13:08:29;10.60;99.90
563;DHT22;266;49.514;8.294;2024-01-30T13:10:57;10.60;99.90
563;DHT22;266;49.514;8.294;2024-01-30T13:13:25;10.80;99.90
563;DHT22;266;49.514;8.294;2024-01-30T13:15:53;10.80;99.90
563;DHT22;266;49.514;8.294;2024-01-30T13:18:21;10.80;99.90
563;DHT22;266;49.514;8.294;2024-01-30T13:20:49;10.80;99.90
563;DHT22;266;49.514;8.294;2024-01-30T13:23:17;10.90;99.90
563;DHT22;266;49.514;8.294;2024-01-30T13:25:47;10.90;99.90
563;DHT22;266;49.514;8.294;2024-01-30T13:28:15;11.00;99.90
563;DHT22;266;49.514;8.294;2024-01-30T13:30:43;11.00;99.90
563;DHT22;266;49.514;8.294;2024-01-30T13:33:11;11.00;99.90
563;DHT22;266;49.514;8.294;2024-01-30T13:35:39;11.00;99.90
563;DHT22;266;49.514;8.294;2024-01-30T13:38:07;11.00;99.90
563;DHT22;266;49.514;8.294;2024-01-30T13:40:35;10.90;99.90
563;DHT22;266;49.514;8.294;2024-01-30T13:43:04;10.90;99.90
563;DHT22;266;49.514;8.294;2024-01-30T13:45:33;10.90;99.90
563;DHT22;266;49.514;8.294;2024-01-30T13:48:01;10.90;99.90
563;DHT22;266;49.514;8.294;2024-01-30T13:50:30;10.90;99.90
563;DHT22;266;49.514;8.294;2024-01-30T13:52:59;10.90;99.90
563;DHT22;266;49.514;8.294;2024-01-30T13:55:28;10.90;99.90
563;DHT22;266;49.514;8.294;2024-01-30T13:57:56;10.90;99.90
563;DHT22;266;49.514;8.294;2024-01-30T14:00:25;10.80;99.90
563;DHT22;266;49.514;8.294;2024-01-30T14:02:53;10.80;99.90
563;DHT22;266;49.514;8.294;2024-01-30T14:05:23;10.80;99.90
563;DHT22;266;49.514;8.294;2024-01-30T14:07:51;10.70;99.90
563;DHT22;266;49.514;8.294;2024-01-30T14:10:20;10.70;99.90
563;DHT22;266;49.514;8.294;2024-01-30T14:12:48;10.70;99.90
563;DHT22;266;49.514;8.294;2024-01-30T14:15:16;10.80;99.90
563;DHT22;266;49.514;8.294;2024-01-30T14:17:57;10.80;99.90
563;DHT22;266;49.514;8.294;2024-01-30T14:20:26;10.80;99.90
563;DHT22;266;49.514;8.294;2024-01-30T14:22:54;10.80;99.90
563;DHT22;266;49.514;8.294;2024-01-30T14:25:23;10.90;99.90
563;DHT22;266;49.514;8.294;2024-01-30T14:27:52;10.90;99.90
563;DHT22;266;49.514;8.294;2024-01-30T14:30:20;10.90;99.90
563;DHT22;266;49.514;8.294;2024-01-30T14:32:48;10.90;99.90
563;DHT22;266;49.514;8.294;2024-01-30T14:35:17;10.90;99.90
563;DHT22;266;49.514;8.294;2024-01-30T14:37:46;11.00;99.90
563;DHT22;266;49.514;8.294;2024-01-30T14:40:14;10.90;99.90
563;DHT22;266;49.514;8.294;2024-01-30T14:42:43;10.90;99.90
563;DHT22;266;49.514;8.294;2024-01-30T14:45:11;10.90;99.90
563;DHT22;266;49.514;8.294;2024-01-30T14:47:40;10.90;99.90
563;DHT22;266;49.514;8.294;2024-01-30T14:50:08;11.00;99.90
563;DHT22;266;49.514;8.294;2024-01-30T14:52:38;11.00;99.90
563;DHT22;266;49.514;8.294;2024-01-30T14:55:07;11.00;99.90
563;DHT22;266;49.514;8.294;2024-01-30T14:57:36;11.10;99.90
563;DHT22;266;49.514;8.294;2024-01-30T15:00:06;11.20;99.90
563;DHT22;266;49.514;8.294;2024-01-30T15:02:34;11.30;99.90
563;DHT22;266;49.514;8.294;2024-01-30T15:05:03;11.30;99.90
563;DHT22;266;49.514;8.294;2024-01-30T15:07:31;11.20;99.90
563;DHT22;266;49.514;8.294;2024-01-30T15:10:08;11.20;99.90
563;DHT22;266;49.514;8.294;2024-01-30T15:12:37;11.10;99.90
563;DHT22;266;49.514;8.294;2024-01-30T15:15:07;11.10;99.90
563;DHT22;266;49.514;8.294;2024-01-30T15:17:38;11.00;99.90
563;DHT22;266;49.514;8.294;2024-01-30T15:20:07;10.90;99.90
563;DHT22;266;49.514;8.294;2024-01-30T15:22:36;10.90;99.90
563;DHT22;266;49.514;8.294;2024-01-30T15:25:05;10.90;99.90
563;DHT22;266;49.514;8.294;2024-01-30T15:27:34;10.90;99.90
563;DHT22;266;49.514;8.294;2024-01-30T15:30:03;10.90;99.90
563;DHT22;266;49.514;8.294;2024-01-30T15:32:31;10.80;99.90
563;DHT22;266;49.514;8.294;2024-01-30T15:35:00;10.80;99.90
563;DHT22;266;49.514;8.294;2024-01-30T15:37:31;10.80;99.90
563;DHT22;266;49.514;8.294;2024-01-30T15:40:00;10.70;99.90
563;DHT22;266;49.514;8.294;2024-01-30T15:42:29;10.70;99.90
563;DHT22;266;49.514;8.294;2024-01-30T15:44:58;10.70;99.90
563;DHT22;266;49.514;8.294;2024-01-30T15:47:26;10.70;99.90
563;DHT22;266;49.514;8.294;2024-01-30T15:49:54;10.70;99.90
563;DHT22;266;49.514;8.294;2024-01-30T15:52:22;10.60;99.90
563;DHT22;266;49.514;8.294;2024-01-30T15:54:50;10.60;99.90
563;DHT22;266;49.514;8.294;2024-01-30T15:57:19;10.50;99.90
563;DHT22;266;49.514;8.294;2024-01-30T15:59:47;10.50;99.90
563;DHT22;266;49.514;8.294;2024-01-30T16:02:16;10.40;99.90
563;DHT22;266;49.514;8.294;2024-01-30T16:04:45;10.50;99.90
563;DHT22;266;49.514;8.294;2024-01-30T16:07:16;10.50;99.90
563;DHT22;266;49.514;8.294;2024-01-30T16:09:44;10.50;99.90
563;DHT22;266;49.514;8.294;2024-01-30T16:12:15;10.50;99.90
563;DHT22;266;49.514;8.294;2024-01-30T16:14:44;10.40;99.90
563;DHT22;266;49.514;8.294;2024-01-30T16:17:12;10.40;99.90
563;DHT22;266;49.514;8.294;2024-01-30T16:19:41;10.40;99.90
563;DHT22;266;49.514;8.294;2024-01-30T16:22:10;10.30;99.90
563;DHT22;266;49.514;8.294;2024-01-30T16:24:38;10.20;99.90
563;DHT22;266;49.514;8.294;2024-01-30T16:27:06;10.20;99.90
563;DHT22;266;49.514;8.294;2024-01-30T16:29:34;10.00;99.90
563;DHT22;266;49.514;8.294;2024-01-30T16:32:03;10.00;99.90
563;DHT22;266;49.514;8.294;2024-01-30T16:34:31;10.00;99.90
563;DHT22;266;49.514;8.294;2024-01-30T16:37:01;9.90;99.90
563;DHT22;266;49.514;8.294;2024-01-30T16:39:29;10.00;99.90
563;DHT22;266;49.514;8.294;2024-01-30T16:41:57;10.00;99.90
563;DHT22;266;49.514;8.294;2024-01-30T16:44:25;10.00;99.90
563;DHT22;266;49.514;8.294;2024-01-30T16:46:53;10.00;99.90
563;DHT22;266;49.514;8.294;2024-01-30T16:49:21;9.90;99.90
563;DHT22;266;49.514;8.294;2024-01-30T16:51:49;9.80;99.90
563;DHT22;266;49.514;8.294;2024-01-30T16:54:19;9.70;99.90